createdAt,value
2017-06-16T00:00:09.964Z,67.40
2017-06-16T00:02:37.588Z,67.50
2017-06-16T00:05:05.989Z,67.80
2017-06-16T00:07:33.598Z,67.60
2017-06-16T00:10:01.265Z,67.40
2017-06-16T00:12:28.953Z,66.60
2017-06-16T00:14:57.398Z,66.10
2017-06-16T00:17:25.209Z,66.10
2017-06-16T00:19:52.873Z,66.30
2017-06-16T00:22:21.285Z,66.50
2017-06-16T00:24:48.928Z,66.30
2017-06-16T00:27:16.568Z,66.60
2017-06-16T00:29:44.276Z,65.90
2017-06-16T00:32:11.973Z,65.50
2017-06-16T00:34:39.677Z,65.00
2017-06-16T00:37:07.381Z,65.40
2017-06-16T00:39:35.092Z,66.00
2017-06-16T00:42:02.702Z,65.50
2017-06-16T00:44:30.325Z,65.40
2017-06-16T00:46:58.751Z,65.70
2017-06-16T00:49:26.377Z,65.70
2017-06-16T00:51:53.980Z,65.70
2017-06-16T00:54:21.898Z,66.10
2017-06-16T00:56:49.530Z,66.00
2017-06-16T00:59:17.167Z,65.50
2017-06-16T01:01:44.830Z,65.50
2017-06-16T01:04:12.492Z,65.10
2017-06-16T01:06:40.141Z,65.20
2017-06-16T01:09:07.781Z,64.60
2017-06-16T01:11:35.450Z,65.30
2017-06-16T01:14:03.138Z,65.10
2017-06-16T01:16:30.867Z,65.30
2017-06-16T01:18:59.259Z,65.80
2017-06-16T01:21:26.942Z,65.70
2017-06-16T01:23:54.611Z,65.10
2017-06-16T01:26:22.278Z,65.00
2017-06-16T01:28:50.010Z,64.80
2017-06-16T01:31:17.670Z,64.70
2017-06-16T01:33:45.366Z,64.50
2017-06-16T01:36:13.001Z,65.00
2017-06-16T01:38:40.725Z,65.30
2017-06-16T01:41:08.405Z,65.80
2017-06-16T01:43:36.777Z,66.30
2017-06-16T01:46:05.188Z,66.60
2017-06-16T01:48:32.798Z,66.60
2017-06-16T01:51:00.431Z,66.70
2017-06-16T01:53:28.096Z,67.40
2017-06-16T01:55:55.733Z,67.40
2017-06-16T01:58:23.421Z,67.80
2017-06-16T02:00:51.095Z,68.40
2017-06-16T02:03:18.726Z,69.10
2017-06-16T02:05:46.344Z,69.10
2017-06-16T02:08:14.058Z,69.40
2017-06-16T02:10:41.715Z,69.70
2017-06-16T02:13:09.376Z,70.40
2017-06-16T02:15:37.077Z,70.30
2017-06-16T02:18:05.527Z,70.50
2017-06-16T02:20:33.213Z,70.50
2017-06-16T02:23:00.936Z,70.20
2017-06-16T02:25:29.355Z,71.20
2017-06-16T02:27:57.017Z,70.70
2017-06-16T02:30:24.689Z,70.60
2017-06-16T02:32:52.313Z,71.70
2017-06-16T02:35:20.015Z,72.30
2017-06-16T02:37:47.675Z,72.10
2017-06-16T02:40:15.309Z,72.50
2017-06-16T02:42:43.004Z,72.10
2017-06-16T02:45:10.894Z,72.90
2017-06-16T02:47:39.294Z,73.00
2017-06-16T02:50:06.977Z,73.00
2017-06-16T02:52:34.652Z,73.60
2017-06-16T02:55:02.364Z,73.80
2017-06-16T02:57:30.084Z,73.80
2017-06-16T02:59:57.691Z,73.70
2017-06-16T03:02:25.361Z,74.20
2017-06-16T03:04:53.900Z,74.90
2017-06-16T03:07:21.512Z,74.70
2017-06-16T03:09:49.186Z,75.20
2017-06-16T03:12:16.874Z,75.40
2017-06-16T03:14:44.463Z,74.70
2017-06-16T03:17:12.086Z,75.20
2017-06-16T03:19:39.800Z,75.50
2017-06-16T03:22:07.509Z,75.40
2017-06-16T03:24:40.945Z,75.60
2017-06-16T03:27:08.565Z,75.20
2017-06-16T03:29:37.013Z,76.20
2017-06-16T03:32:04.735Z,76.20
2017-06-16T03:34:32.420Z,76.00
2017-06-16T03:37:00.155Z,76.10
2017-06-16T03:39:27.836Z,77.30
2017-06-16T03:41:56.385Z,76.40
2017-06-16T03:44:24.803Z,77.10
2017-06-16T03:46:52.464Z,77.10
2017-06-16T03:49:20.131Z,76.80
2017-06-16T03:51:47.817Z,77.10
2017-06-16T03:54:15.483Z,76.50
2017-06-16T03:56:43.897Z,76.90
2017-06-16T03:59:11.566Z,76.90
2017-06-16T04:01:40.017Z,77.40
2017-06-16T04:04:07.687Z,77.20
2017-06-16T04:06:36.092Z,77.10
2017-06-16T04:09:03.942Z,77.10
2017-06-16T04:11:32.446Z,77.10
2017-06-16T04:14:00.113Z,77.10
2017-06-16T04:16:27.845Z,76.60
2017-06-16T04:18:55.376Z,77.60
2017-06-16T04:21:22.891Z,77.60
2017-06-16T04:23:51.348Z,78.60
2017-06-16T04:26:18.868Z,77.90
2017-06-16T04:28:46.389Z,77.70
2017-06-16T04:31:14.835Z,78.40
2017-06-16T04:33:42.370Z,78.20
2017-06-16T04:36:09.924Z,78.00
2017-06-16T04:38:37.522Z,78.40
2017-06-16T04:41:05.072Z,78.20
2017-06-16T04:43:32.657Z,78.30
2017-06-16T04:46:00.304Z,78.10
2017-06-16T04:48:27.906Z,78.40
2017-06-16T04:50:56.200Z,78.80
2017-06-16T04:53:23.798Z,78.70
2017-06-16T04:55:51.320Z,78.60
2017-06-16T04:58:18.864Z,78.70
2017-06-16T05:00:47.193Z,78.30
2017-06-16T05:03:14.717Z,78.30
2017-06-16T05:05:42.248Z,76.20
2017-06-16T05:08:09.833Z,77.10
2017-06-16T05:10:38.125Z,77.00
2017-06-16T05:13:05.649Z,77.50
2017-06-16T05:15:33.229Z,75.90
2017-06-16T05:18:00.836Z,76.30
2017-06-16T05:20:28.369Z,74.50
2017-06-16T05:23:01.745Z,74.40
2017-06-16T05:25:29.293Z,73.30
2017-06-16T05:27:56.833Z,73.20
2017-06-16T05:30:24.408Z,72.40
2017-06-16T05:32:52.037Z,72.20
2017-06-16T05:35:19.585Z,73.20
2017-06-16T05:37:47.155Z,71.30
2017-06-16T05:40:14.680Z,71.10
2017-06-16T05:42:42.208Z,70.80
2017-06-16T05:45:09.805Z,69.40
2017-06-16T05:47:37.340Z,69.80
2017-06-16T05:50:05.730Z,67.60
2017-06-16T05:52:34.052Z,67.80
2017-06-16T05:55:01.567Z,67.80
2017-06-16T05:57:29.905Z,67.00
2017-06-16T05:59:57.476Z,67.00
2017-06-16T06:02:25.020Z,67.10
2017-06-16T06:04:52.608Z,66.50
2017-06-16T06:07:20.141Z,64.40
2017-06-16T06:09:47.667Z,65.10
2017-06-16T06:12:15.281Z,65.20
2017-06-16T06:14:42.813Z,66.40
2017-06-16T06:17:10.339Z,65.10
2017-06-16T06:19:37.916Z,63.10
2017-06-16T06:22:05.489Z,64.00
2017-06-16T06:24:33.010Z,63.60
2017-06-16T06:27:00.605Z,63.70
2017-06-16T06:29:28.132Z,63.40
2017-06-16T06:31:56.516Z,62.20
2017-06-16T06:34:24.846Z,63.30
2017-06-16T06:36:52.372Z,63.10
2017-06-16T06:39:19.893Z,62.10
2017-06-16T06:41:47.470Z,61.10
2017-06-16T06:44:15.756Z,61.80
2017-06-16T06:46:43.281Z,61.70
2017-06-16T06:49:10.872Z,60.90
2017-06-16T06:51:38.423Z,60.70
2017-06-16T06:54:06.708Z,60.60
2017-06-16T06:56:35.058Z,60.40
2017-06-16T06:59:02.581Z,61.10
2017-06-16T07:01:30.112Z,60.60
2017-06-16T07:03:57.677Z,59.70
2017-06-16T07:06:25.215Z,60.00
2017-06-16T07:08:53.501Z,60.10
2017-06-16T07:11:21.831Z,59.10
2017-06-16T07:13:49.365Z,59.50
2017-06-16T07:16:17.041Z,59.20
2017-06-16T07:18:44.653Z,58.90
2017-06-16T07:21:12.242Z,59.10
2017-06-16T07:23:39.857Z,59.90
2017-06-16T07:26:07.380Z,60.30
2017-06-16T07:28:34.917Z,59.10
2017-06-16T07:31:02.544Z,58.70
2017-06-16T07:33:30.066Z,59.90
2017-06-16T07:35:57.598Z,59.50
2017-06-16T07:38:25.233Z,60.30
2017-06-16T07:40:53.569Z,59.80
2017-06-16T07:43:21.168Z,59.80
2017-06-16T07:45:48.732Z,59.70
2017-06-16T07:48:16.272Z,61.00
2017-06-16T07:50:43.796Z,60.40
2017-06-16T07:53:11.356Z,59.40
2017-06-16T07:55:38.905Z,59.00
2017-06-16T07:58:06.456Z,58.20
2017-06-16T08:00:34.073Z,58.10
2017-06-16T08:03:01.607Z,58.30
2017-06-16T08:05:29.152Z,57.50
2017-06-16T08:07:56.848Z,57.20
2017-06-16T08:10:24.400Z,57.60
2017-06-16T08:12:51.926Z,58.60
2017-06-16T08:15:19.510Z,58.30
2017-06-16T08:17:47.038Z,56.80
2017-06-16T08:20:15.350Z,58.10
2017-06-16T08:22:43.742Z,57.70
2017-06-16T08:25:11.404Z,57.70
2017-06-16T08:27:38.940Z,57.70
2017-06-16T08:30:06.533Z,57.30
2017-06-16T08:32:34.105Z,57.50
2017-06-16T08:35:02.426Z,58.50
2017-06-16T08:37:30.004Z,58.40
2017-06-16T08:39:57.532Z,57.90
2017-06-16T08:42:25.842Z,57.70
2017-06-16T08:44:53.438Z,57.60
2017-06-16T08:47:21.028Z,56.40
2017-06-16T08:49:49.331Z,57.70
2017-06-16T08:52:16.928Z,57.70
2017-06-16T08:54:44.478Z,57.50
2017-06-16T08:57:12.008Z,55.80
2017-06-16T08:59:44.605Z,55.50
2017-06-16T09:02:13.092Z,56.00
2017-06-16T09:04:40.783Z,55.60
2017-06-16T09:07:08.410Z,54.20
2017-06-16T09:09:45.254Z,54.60
2017-06-16T09:12:12.981Z,55.90
2017-06-16T09:14:40.530Z,54.50
2017-06-16T09:17:10.555Z,54.60
2017-06-16T09:19:38.609Z,54.80
2017-06-16T09:22:07.043Z,53.60
2017-06-16T09:24:34.621Z,53.50
2017-06-16T09:27:02.921Z,52.90
2017-06-16T09:29:30.537Z,52.90
2017-06-16T09:31:58.088Z,52.60
2017-06-16T09:34:25.608Z,53.10
2017-06-16T09:36:53.188Z,53.10
2017-06-16T09:39:20.718Z,53.90
2017-06-16T09:41:48.252Z,53.10
2017-06-16T09:44:16.987Z,54.90
2017-06-16T09:46:44.523Z,54.90
2017-06-16T09:49:12.052Z,54.50
2017-06-16T09:51:39.640Z,55.40
2017-06-16T09:54:07.201Z,55.60
2017-06-16T09:56:34.835Z,53.20
2017-06-16T09:59:02.401Z,54.00
2017-06-16T10:01:30.720Z,53.70
2017-06-16T10:03:58.268Z,53.70
2017-06-16T10:06:25.865Z,54.60
2017-06-16T10:08:53.398Z,52.40
2017-06-16T10:11:20.960Z,51.70
2017-06-16T10:13:48.539Z,50.00
2017-06-16T10:16:16.788Z,48.40
2017-06-16T10:18:44.332Z,47.50
2017-06-16T10:21:11.909Z,47.20
2017-06-16T10:23:39.450Z,45.70
2017-06-16T10:26:07.747Z,44.60
2017-06-16T10:28:35.318Z,44.60
2017-06-16T10:31:02.853Z,44.50
2017-06-16T10:33:31.155Z,43.70
2017-06-16T10:35:58.771Z,43.70
2017-06-16T10:38:26.302Z,42.90
2017-06-16T10:40:53.940Z,43.10
2017-06-16T10:43:21.513Z,43.00
2017-06-16T10:45:49.027Z,42.40
2017-06-16T10:48:17.314Z,42.70
2017-06-16T10:50:44.883Z,42.60
2017-06-16T10:53:12.414Z,43.00
2017-06-16T10:55:39.940Z,42.60
2017-06-16T10:58:07.516Z,42.70
2017-06-16T11:00:35.031Z,41.40
2017-06-16T11:03:02.557Z,38.80
2017-06-16T11:05:30.123Z,39.80
2017-06-16T11:07:58.424Z,40.30
2017-06-16T11:10:25.952Z,40.30
2017-06-16T11:12:53.521Z,38.80
2017-06-16T11:15:21.820Z,39.50
2017-06-16T11:17:49.350Z,39.40
2017-06-16T11:20:17.696Z,39.00
2017-06-16T11:22:45.222Z,38.40
2017-06-16T11:25:12.801Z,39.60
2017-06-16T11:27:40.438Z,39.00
2017-06-16T11:30:08.052Z,38.20
2017-06-16T11:32:35.588Z,37.10
2017-06-16T11:35:03.165Z,36.70
2017-06-16T11:37:30.684Z,33.70
2017-06-16T11:39:58.232Z,33.50
2017-06-16T11:42:25.831Z,34.50
2017-06-16T11:44:53.356Z,35.50
2017-06-16T11:47:20.892Z,35.80
2017-06-16T11:49:48.464Z,35.60
2017-06-16T11:52:16.755Z,35.10
2017-06-16T11:54:44.297Z,34.60
2017-06-16T11:57:12.652Z,37.10
2017-06-16T11:59:40.180Z,37.10
2017-06-16T12:02:07.700Z,34.20
2017-06-16T12:04:36.046Z,36.10
2017-06-16T12:07:03.577Z,36.00
2017-06-16T12:09:31.111Z,35.30
2017-06-16T12:11:58.756Z,36.50
2017-06-16T12:14:26.284Z,37.00
2017-06-16T12:16:53.864Z,38.20
2017-06-16T12:19:21.433Z,36.10
2017-06-16T12:21:49.064Z,35.10
2017-06-16T12:24:17.408Z,36.10
2017-06-16T12:26:44.976Z,36.00
2017-06-16T12:29:12.515Z,34.00
2017-06-16T12:31:40.878Z,33.10
2017-06-16T12:34:08.465Z,33.10
2017-06-16T12:36:35.992Z,34.50
2017-06-16T12:39:03.527Z,33.20
2017-06-16T12:41:31.155Z,34.30
2017-06-16T12:43:58.676Z,34.40
2017-06-16T12:46:26.285Z,33.70
2017-06-16T12:48:53.871Z,35.70
2017-06-16T12:51:21.449Z,36.60
2017-06-16T12:53:49.009Z,37.10
2017-06-16T12:56:16.529Z,34.60
2017-06-16T12:58:44.116Z,36.80
2017-06-16T13:01:11.652Z,36.70
2017-06-16T13:03:39.258Z,37.00
2017-06-16T13:06:06.817Z,37.40
2017-06-16T13:08:34.339Z,36.70
2017-06-16T13:11:01.855Z,37.00
2017-06-16T13:13:30.181Z,35.40
2017-06-16T13:15:57.719Z,35.30
2017-06-16T13:18:25.300Z,35.30
2017-06-16T13:20:52.882Z,35.40
2017-06-16T13:23:20.567Z,35.50
2017-06-16T13:25:48.872Z,34.60
2017-06-16T13:28:17.203Z,36.70
2017-06-16T13:30:44.786Z,36.60
2017-06-16T13:33:13.104Z,35.80
2017-06-16T13:35:40.660Z,35.70
2017-06-16T13:38:08.188Z,36.60
2017-06-16T13:40:35.700Z,36.00
2017-06-16T13:43:03.263Z,36.80
2017-06-16T13:45:30.780Z,37.40
2017-06-16T13:47:58.306Z,35.70
2017-06-16T13:50:25.895Z,32.50
2017-06-16T13:52:54.174Z,34.40
2017-06-16T13:55:22.460Z,34.70
2017-06-16T13:57:50.792Z,34.90
2017-06-16T14:00:18.309Z,34.80
2017-06-16T14:02:45.823Z,35.60
2017-06-16T14:05:13.399Z,33.90
2017-06-16T14:07:40.919Z,33.40
2017-06-16T14:10:08.436Z,34.10
2017-06-16T14:12:36.761Z,31.50
2017-06-16T14:15:04.357Z,31.40
2017-06-16T14:17:32.675Z,32.70
2017-06-16T14:20:00.228Z,32.20
2017-06-16T14:22:27.757Z,33.50
2017-06-16T14:24:56.056Z,33.10
2017-06-16T14:27:24.381Z,32.40
2017-06-16T14:29:51.898Z,32.40
2017-06-16T14:32:19.420Z,31.70
2017-06-16T14:34:46.992Z,30.50
2017-06-16T14:37:14.527Z,29.60
2017-06-16T14:39:42.082Z,30.90
2017-06-16T14:42:09.672Z,29.20
2017-06-16T14:44:37.183Z,30.30
2017-06-16T14:47:04.708Z,30.20
2017-06-16T14:49:33.041Z,30.90
2017-06-16T14:52:00.560Z,30.90
2017-06-16T14:54:28.077Z,30.50
2017-06-16T14:56:55.647Z,29.60
2017-06-16T14:59:23.943Z,29.40
2017-06-16T15:01:51.469Z,29.20
2017-06-16T15:04:19.039Z,28.70
2017-06-16T15:06:46.553Z,28.10
2017-06-16T15:09:14.097Z,29.40
2017-06-16T15:11:41.653Z,29.40
2017-06-16T15:14:09.163Z,28.70
2017-06-16T15:16:36.681Z,29.80
2017-06-16T15:19:04.240Z,29.60
2017-06-16T15:21:34.581Z,28.10
2017-06-16T15:24:02.108Z,28.10
2017-06-16T15:26:30.443Z,27.60
2017-06-16T15:28:57.958Z,27.50
2017-06-16T15:31:25.485Z,28.20
2017-06-16T15:33:53.044Z,27.80
2017-06-16T15:36:20.570Z,28.20
2017-06-16T15:38:48.087Z,29.00
2017-06-16T15:41:16.427Z,29.30
2017-06-16T15:43:43.940Z,29.60
2017-06-16T15:46:11.455Z,30.90
2017-06-16T15:48:39.029Z,32.90
2017-06-16T15:51:06.551Z,33.40
2017-06-16T15:53:34.072Z,32.90
2017-06-16T15:56:01.630Z,32.90
2017-06-16T15:58:29.143Z,33.30
2017-06-16T16:00:56.665Z,35.30
2017-06-16T16:03:24.227Z,33.50
2017-06-16T16:05:51.737Z,34.10
2017-06-16T16:08:19.257Z,35.20
2017-06-16T16:10:46.831Z,34.40
2017-06-16T16:13:14.357Z,35.00
2017-06-16T16:15:41.871Z,35.80
2017-06-16T16:18:09.437Z,35.50
2017-06-16T16:20:37.060Z,36.40
2017-06-16T16:23:04.572Z,35.50
2017-06-16T16:25:32.932Z,36.40
2017-06-16T16:28:00.456Z,36.40
2017-06-16T16:30:27.975Z,36.70
2017-06-16T16:32:56.316Z,37.60
2017-06-16T16:35:23.836Z,37.50
2017-06-16T16:37:51.356Z,37.00
2017-06-16T16:40:18.952Z,38.90
2017-06-16T16:42:46.475Z,39.20
2017-06-16T16:45:14.003Z,38.60
2017-06-16T16:47:41.563Z,38.80
2017-06-16T16:50:09.092Z,39.10
2017-06-16T16:52:36.614Z,39.60
2017-06-16T16:55:04.178Z,39.50
2017-06-16T16:57:31.704Z,40.00
2017-06-16T16:59:59.228Z,41.00
2017-06-16T17:02:26.790Z,41.50
2017-06-16T17:04:54.314Z,41.20
2017-06-16T17:07:21.833Z,41.50
2017-06-16T17:09:49.408Z,41.90
2017-06-16T17:12:16.943Z,42.00
2017-06-16T17:14:44.465Z,41.70
2017-06-16T17:17:12.026Z,41.90
2017-06-16T17:19:40.304Z,42.70
2017-06-16T17:22:08.593Z,42.30
2017-06-16T17:24:36.939Z,42.90
2017-06-16T17:27:04.515Z,42.70
2017-06-16T17:29:32.033Z,43.50
2017-06-16T17:31:59.605Z,43.70
2017-06-16T17:34:27.127Z,42.10
2017-06-16T17:36:54.813Z,42.30
2017-06-16T17:39:22.696Z,42.10
2017-06-16T17:41:50.228Z,42.60
2017-06-16T17:44:17.747Z,43.00
2017-06-16T17:46:45.320Z,44.20
2017-06-16T17:49:13.610Z,43.50
2017-06-16T17:51:41.142Z,43.40
2017-06-16T17:54:08.709Z,43.00
2017-06-16T17:56:36.227Z,43.30
2017-06-16T17:59:03.740Z,43.00
2017-06-16T18:01:32.077Z,45.40
2017-06-16T18:03:59.629Z,45.30
2017-06-16T18:06:27.145Z,44.50
2017-06-16T18:08:54.805Z,46.60
2017-06-16T18:11:23.081Z,47.60
2017-06-16T18:13:50.600Z,47.50
2017-06-16T18:16:18.164Z,46.80
2017-06-16T18:18:45.683Z,45.90
2017-06-16T18:21:13.224Z,48.00
2017-06-16T18:23:40.797Z,51.30
2017-06-16T18:26:08.316Z,52.80
2017-06-16T18:28:35.834Z,49.90
2017-06-16T18:33:36.448Z,47.00
2017-06-16T18:36:04.007Z,49.20
2017-06-16T18:38:32.288Z,48.30
2017-06-16T18:41:00.572Z,47.30
2017-06-16T18:43:28.140Z,47.30
2017-06-16T18:45:55.664Z,48.90
2017-06-16T18:48:23.181Z,48.30
2017-06-16T18:50:50.743Z,49.20
2017-06-16T18:53:18.264Z,48.20
2017-06-16T18:55:46.540Z,46.60
2017-06-16T18:58:14.871Z,49.30
2017-06-16T19:00:42.385Z,49.20
2017-06-16T19:03:10.663Z,50.10
2017-06-16T19:05:38.232Z,50.10
2017-06-16T19:08:05.748Z,49.40
2017-06-16T19:10:33.261Z,49.10
2017-06-16T19:13:00.816Z,49.00
2017-06-16T19:15:28.333Z,50.50
2017-06-16T19:17:55.865Z,50.60
2017-06-16T19:20:24.003Z,49.10
2017-06-16T19:22:51.520Z,52.50
2017-06-16T19:25:19.042Z,49.60
2017-06-16T19:27:46.618Z,50.10
2017-06-16T19:30:14.145Z,50.00
2017-06-16T19:32:41.673Z,50.40
2017-06-16T19:35:09.246Z,51.60
2017-06-16T19:37:37.536Z,52.30
2017-06-16T19:40:05.064Z,52.20
2017-06-16T19:42:32.645Z,50.50
2017-06-16T19:45:00.989Z,48.60
2017-06-16T19:47:28.513Z,48.60
2017-06-16T19:49:56.072Z,49.00
2017-06-16T19:52:23.596Z,48.60
2017-06-16T19:54:51.891Z,49.80
2017-06-16T19:57:19.462Z,49.70
2017-06-16T19:59:46.993Z,49.10
2017-06-16T20:02:14.524Z,50.50
2017-06-16T20:04:42.113Z,48.70
2017-06-16T20:07:09.653Z,49.70
2017-06-16T20:09:37.184Z,49.80
2017-06-16T20:12:04.749Z,51.20
2017-06-16T20:14:32.276Z,50.70
2017-06-16T20:16:59.795Z,51.60
2017-06-16T20:19:27.365Z,50.50
2017-06-16T20:21:54.890Z,51.60
2017-06-16T20:24:22.458Z,51.40
2017-06-16T20:26:50.015Z,52.10
2017-06-16T20:29:17.536Z,51.00
2017-06-16T20:31:45.274Z,51.20
2017-06-16T20:34:12.960Z,52.00
2017-06-16T20:36:40.537Z,51.40
2017-06-16T20:39:08.056Z,51.30
2017-06-16T20:41:35.625Z,51.70
2017-06-16T20:44:03.164Z,52.70
2017-06-16T20:46:30.726Z,50.90
2017-06-16T20:48:58.285Z,51.90
2017-06-16T20:51:25.800Z,51.60
2017-06-16T20:53:53.365Z,52.80
2017-06-16T20:56:20.889Z,53.20
2017-06-16T20:58:49.246Z,52.90
2017-06-16T21:01:16.863Z,52.90
2017-06-16T21:03:44.388Z,52.80
2017-06-16T21:06:12.670Z,52.70
2017-06-16T21:08:41.057Z,54.80
2017-06-16T21:11:09.340Z,52.90
2017-06-16T21:13:36.874Z,52.80
2017-06-16T21:16:04.454Z,54.80
2017-06-16T21:18:32.745Z,52.20
2017-06-16T21:21:05.956Z,52.10
2017-06-16T21:23:33.481Z,53.20
2017-06-16T21:26:01.768Z,52.50
2017-06-16T21:28:30.107Z,52.60
2017-06-16T21:30:57.624Z,53.00
2017-06-16T21:33:25.244Z,52.60
2017-06-16T21:35:52.848Z,54.00
2017-06-16T21:38:20.384Z,52.60
2017-06-16T21:40:48.680Z,53.30
2017-06-16T21:43:16.253Z,53.30
2017-06-16T21:45:43.787Z,52.90
2017-06-16T21:48:11.317Z,53.90
2017-06-16T21:50:39.132Z,53.90
2017-06-16T21:53:06.657Z,54.30
2017-06-16T21:55:35.041Z,54.50
2017-06-16T21:58:03.378Z,52.90
2017-06-16T22:00:30.896Z,52.70
2017-06-16T22:02:58.433Z,53.80
2017-06-16T22:05:26.080Z,53.80
2017-06-16T22:07:53.603Z,54.60
2017-06-16T22:10:21.129Z,56.10
2017-06-16T22:12:49.457Z,54.90
2017-06-16T22:15:16.976Z,54.80
2017-06-16T22:17:44.509Z,54.20
2017-06-16T22:20:12.137Z,55.90
2017-06-16T22:22:39.713Z,55.10
2017-06-16T22:25:07.243Z,53.50
2017-06-16T22:27:34.856Z,53.90
2017-06-16T22:30:02.368Z,54.40
2017-06-16T22:32:29.889Z,54.80
2017-06-16T22:34:57.459Z,53.40
2017-06-16T22:37:24.994Z,53.50
2017-06-16T22:39:52.521Z,54.00
2017-06-16T22:42:20.085Z,53.00
2017-06-16T22:44:47.605Z,54.90
2017-06-16T22:47:15.135Z,54.10
2017-06-16T22:49:43.465Z,53.40
2017-06-16T22:52:11.095Z,53.30
2017-06-16T22:54:38.617Z,53.50
2017-06-16T22:57:06.270Z,53.50
2017-06-16T22:59:33.872Z,53.20
2017-06-16T23:02:02.156Z,53.80
2017-06-16T23:04:29.760Z,53.80
2017-06-16T23:06:57.269Z,53.40
2017-06-16T23:09:25.623Z,54.50
2017-06-16T23:11:53.185Z,54.50
2017-06-16T23:14:20.709Z,54.50
2017-06-16T23:16:48.244Z,55.40
2017-06-16T23:19:15.813Z,55.60
2017-06-16T23:21:43.337Z,55.00
2017-06-16T23:24:10.861Z,55.30
2017-06-16T23:26:38.490Z,54.90
2017-06-16T23:29:06.048Z,54.60
2017-06-16T23:31:33.574Z,55.30
2017-06-16T23:34:01.150Z,55.30
2017-06-16T23:36:28.689Z,54.70
2017-06-16T23:38:56.208Z,54.70
2017-06-16T23:41:23.787Z,55.30
2017-06-16T23:43:51.300Z,55.20
2017-06-16T23:46:18.816Z,56.10
2017-06-16T23:48:46.420Z,55.60
2017-06-16T23:51:14.995Z,56.60
2017-06-16T23:53:42.553Z,56.50
2017-06-16T23:56:10.886Z,56.60
2017-06-16T23:58:38.477Z,56.60
